UNTT/TOF METAR and TAF weather

Enter ICAO airport designator
Station Type Date Time Source
UNTT METAR 2020/08/15 17:00 UTC NOAA

UNTT 151700Z 27002MPS 9999 FEW030CB 16/15 Q1011 R21/190055 NOSIG RMK QFE743


Station Type Date Time Source
UNTT Decoded METAR 2020/08/15 17:00 UTC NOAA

Station name not available
Aug 15, 2020 - 01:00 PM EDT / 2020.08.15 1700 UTC
Wind: from the W (270 degrees) at 4 MPH (4 KT):0
Visibility: greater than 7 mile(s):0
Sky conditions: mostly clear
Weather: Cumulonimbus clouds observed
Temperature: 60 F (16 C)
Dew Point: 59 F (15 C)
Relative Humidity: 93%
Pressure (altimeter): 29.85 in. Hg (1011 hPa)
ob: UNTT 151700Z 27002MPS 9999 FEW030CB 16/15 Q1011 R21/190055 NOSIG RMK QFE743
cycle: 17

Station Type Date Time Source
UNTT TAF UTC NOAA

Error!

Example: see airport list